Terminal Aerodrome Forecast
Issued by NWS Cleveland, OH

Home | Current Version | Previous Version | Graphics & Text | Print | Product List | Glossary Off
Versions: 1 2 3 4 5 6 7 8 9 10 11 12 13 14 15 16 17 18 19 20 21

000
FTUS41 KCLE 211731
TAFMFD
TAF
KMFD 211731Z 2118/2218 20014G20KT P6SM BKN015 OVC025
     FM212130 21014G20KT P6SM VCTS BKN015 OVC025CB
      TEMPO 2122/2124 2SM -TSRA OVC015CB
     FM220000 25014KT P6SM BKN035
     FM220800 24006KT 6SM BR BKN025=

USA.gov is the U.S. government's official web portal to all federal, state and local government web resources and services.